createdAt,value
2023-02-16T00:01:21.764Z,57.40
2023-02-16T00:03:49.707Z,58.60
2023-02-16T00:06:17.636Z,51.47
2023-02-16T00:08:46.128Z,47.57
2023-02-16T00:11:36.249Z,47.53
2023-02-16T00:14:04.782Z,42.57
2023-02-16T00:16:32.075Z,55.87
2023-02-16T00:18:59.360Z,52.40
2023-02-16T00:21:26.677Z,60.00
2023-02-16T00:23:54.181Z,55.13
2023-02-16T00:26:24.232Z,50.40
2023-02-16T00:28:53.724Z,71.00
2023-02-16T00:31:22.424Z,48.60
2023-02-16T00:33:50.190Z,46.30
2023-02-16T00:36:17.504Z,64.57
2023-02-16T00:38:44.778Z,53.27
2023-02-16T00:41:31.807Z,52.30
2023-02-16T00:43:59.869Z,47.87
2023-02-16T00:46:27.277Z,46.87
2023-02-16T00:48:54.595Z,59.60
2023-02-16T00:51:26.190Z,56.33
2023-02-16T00:53:53.801Z,56.70
2023-02-16T00:56:21.886Z,46.13
2023-02-16T00:58:52.361Z,57.27
2023-02-16T01:01:24.004Z,56.73
2023-02-16T01:03:51.341Z,48.93
2023-02-16T01:06:36.659Z,51.87
2023-02-16T01:09:31.617Z,62.77
2023-02-16T01:11:59.504Z,53.87
2023-02-16T01:14:27.022Z,50.53
2023-02-16T01:16:54.995Z,57.13
2023-02-16T01:19:22.251Z,56.20
2023-02-16T01:21:49.660Z,47.80
2023-02-16T01:24:16.949Z,59.37
2023-02-16T01:26:48.753Z,63.97
2023-02-16T01:29:18.252Z,66.40
2023-02-16T01:31:46.295Z,61.33
2023-02-16T01:34:14.559Z,58.00
2023-02-16T01:36:44.444Z,52.80
2023-02-16T01:39:13.339Z,59.47
2023-02-16T01:41:54.174Z,63.33
2023-02-16T01:44:24.411Z,55.37
2023-02-16T01:46:56.284Z,56.27
2023-02-16T01:49:24.406Z,53.73
2023-02-16T01:51:56.708Z,37.87
2023-02-16T01:54:37.235Z,47.00
2023-02-16T01:57:11.946Z,49.17
2023-02-16T01:59:57.026Z,48.17
2023-02-16T02:02:26.308Z,49.30
2023-02-16T02:05:16.811Z,61.97
2023-02-16T02:07:50.051Z,38.53
2023-02-16T02:10:28.321Z,59.67
2023-02-16T02:12:59.421Z,47.80
2023-02-16T02:15:30.732Z,42.93
2023-02-16T02:17:58.247Z,46.77
2023-02-16T02:20:58.148Z,54.03
2023-02-16T02:23:39.873Z,51.30
2023-02-16T02:26:43.049Z,62.93
2023-02-16T02:29:46.424Z,49.87
2023-02-16T02:32:22.803Z,42.17
2023-02-16T02:35:03.198Z,56.20
2023-02-16T02:37:43.752Z,56.13
2023-02-16T02:40:16.435Z,44.87
2023-02-16T02:42:55.011Z,61.07
2023-02-16T02:45:24.754Z,37.53
2023-02-16T02:47:52.689Z,44.83
2023-02-16T02:51:03.406Z,42.67
2023-02-16T02:53:31.319Z,53.13
2023-02-16T02:56:19.165Z,36.30
2023-02-16T02:59:08.360Z,44.07
2023-02-16T03:01:38.983Z,47.83
2023-02-16T03:04:10.831Z,40.10
2023-02-16T03:06:43.707Z,53.67
2023-02-16T03:09:13.917Z,49.93
2023-02-16T03:12:00.408Z,57.30
2023-02-16T03:14:31.967Z,59.37
2023-02-16T03:17:19.696Z,55.87
2023-02-16T03:20:09.189Z,47.23
2023-02-16T03:22:55.692Z,50.30
2023-02-16T03:25:43.502Z,46.77
2023-02-16T03:28:29.988Z,72.03
2023-02-16T03:30:57.674Z,64.27
2023-02-16T03:33:26.507Z,50.43
2023-02-16T03:35:55.009Z,57.73
2023-02-16T03:38:22.744Z,47.57
2023-02-16T03:40:51.775Z,49.80
2023-02-16T03:43:19.036Z,50.83
2023-02-16T03:45:46.415Z,58.67
2023-02-16T03:48:13.698Z,48.93
2023-02-16T03:50:41.021Z,40.80
2023-02-16T03:53:09.004Z,40.33
2023-02-16T03:55:38.093Z,49.50
2023-02-16T03:58:06.585Z,58.23
2023-02-16T04:00:35.042Z,36.47
2023-02-16T04:03:02.763Z,35.93
2023-02-16T04:05:30.371Z,50.27
2023-02-16T04:07:57.750Z,110.27
2023-02-16T04:10:25.963Z,93.93
2023-02-16T04:12:53.127Z,74.63
2023-02-16T04:15:22.814Z,68.70
2023-02-16T04:17:50.307Z,82.00
2023-02-16T04:20:20.233Z,75.07
2023-02-16T04:22:48.162Z,65.23
2023-02-16T04:25:16.422Z,61.10
2023-02-16T04:27:44.906Z,64.63
2023-02-16T04:30:15.018Z,62.47
2023-02-16T04:32:42.401Z,62.73
2023-02-16T04:35:09.972Z,53.50
2023-02-16T04:37:37.268Z,54.77
2023-02-16T04:40:05.640Z,48.50
2023-02-16T04:42:32.934Z,56.07
2023-02-16T04:45:00.851Z,52.13
2023-02-16T04:47:28.172Z,47.33
2023-02-16T04:49:55.466Z,61.97
2023-02-16T04:52:22.743Z,74.17
2023-02-16T04:54:50.050Z,72.87
2023-02-16T04:57:18.682Z,53.97
2023-02-16T04:59:45.962Z,59.87
2023-02-16T05:02:13.884Z,57.23
2023-02-16T05:04:41.802Z,48.37
2023-02-16T05:07:09.112Z,42.17
2023-02-16T05:09:36.361Z,54.67
2023-02-16T05:12:21.601Z,46.27
2023-02-16T05:14:49.240Z,49.73
2023-02-16T05:17:19.225Z,50.57
2023-02-16T05:19:48.217Z,56.13
2023-02-16T05:22:16.023Z,69.83
2023-02-16T05:24:43.715Z,60.50
2023-02-16T05:27:13.858Z,56.37
2023-02-16T05:29:41.311Z,62.27
2023-02-16T05:32:08.687Z,62.80
2023-02-16T05:34:37.591Z,55.20
2023-02-16T05:37:04.981Z,74.53
2023-02-16T05:39:32.309Z,64.60
2023-02-16T05:41:59.599Z,69.90
2023-02-16T05:44:27.121Z,55.20
2023-02-16T05:46:54.448Z,65.50
2023-02-16T05:49:21.809Z,94.47
2023-02-16T05:51:49.788Z,107.93
2023-02-16T05:54:17.119Z,121.27
2023-02-16T05:56:45.647Z,62.00
2023-02-16T05:59:13.364Z,58.90
2023-02-16T06:01:40.627Z,63.70
2023-02-16T06:04:08.939Z,51.57
2023-02-16T06:06:37.306Z,74.40
2023-02-16T06:09:06.413Z,64.70
2023-02-16T06:11:36.933Z,48.53
2023-02-16T06:14:06.378Z,72.20
2023-02-16T06:16:34.854Z,53.60
2023-02-16T06:19:02.852Z,56.03
2023-02-16T06:21:30.511Z,47.43
2023-02-16T06:23:58.094Z,46.93
2023-02-16T06:26:26.673Z,49.53
2023-02-16T06:28:54.309Z,52.87
2023-02-16T06:31:21.840Z,40.13
2023-02-16T06:33:49.196Z,54.20
2023-02-16T06:36:16.765Z,48.70
2023-02-16T06:38:44.762Z,48.93
2023-02-16T06:41:12.311Z,50.93
2023-02-16T06:43:40.208Z,53.50
2023-02-16T06:46:07.489Z,54.00
2023-02-16T06:48:34.805Z,45.67
2023-02-16T06:51:02.447Z,41.97
2023-02-16T06:53:29.882Z,41.70
2023-02-16T06:55:57.158Z,36.60
2023-02-16T06:58:24.458Z,59.87
2023-02-16T07:00:55.183Z,61.00
2023-02-16T07:03:22.492Z,53.97
2023-02-16T07:05:50.013Z,46.40
2023-02-16T07:08:17.408Z,35.23
2023-02-16T07:10:50.203Z,43.23
2023-02-16T07:13:17.799Z,52.13
2023-02-16T07:15:45.198Z,64.90
2023-02-16T07:18:13.463Z,61.67
2023-02-16T07:20:41.193Z,46.53
2023-02-16T07:23:08.528Z,55.07
2023-02-16T07:25:37.143Z,64.77
2023-02-16T07:28:04.651Z,63.37
2023-02-16T07:30:32.233Z,64.60
2023-02-16T07:32:59.570Z,83.13
2023-02-16T07:35:27.916Z,55.27
2023-02-16T07:37:55.190Z,109.67
2023-02-16T07:40:22.482Z,85.80
2023-02-16T07:42:49.745Z,61.20
2023-02-16T07:45:17.231Z,69.63
2023-02-16T07:47:44.536Z,56.10
2023-02-16T07:50:12.415Z,55.97
2023-02-16T07:52:40.373Z,46.90
2023-02-16T07:55:08.046Z,71.77
2023-02-16T07:57:38.388Z,53.37
2023-02-16T08:00:07.125Z,67.97
2023-02-16T08:02:34.854Z,59.90
2023-02-16T08:05:02.557Z,54.53
2023-02-16T08:07:29.894Z,59.43
2023-02-16T08:09:58.240Z,56.20
2023-02-16T08:12:25.512Z,53.07
2023-02-16T08:14:52.965Z,69.23
2023-02-16T08:17:20.289Z,62.80
2023-02-16T08:19:47.630Z,59.37
2023-02-16T08:22:15.078Z,61.53
2023-02-16T08:24:42.763Z,55.40
2023-02-16T08:27:10.816Z,49.53
2023-02-16T08:29:38.132Z,52.93
2023-02-16T08:32:07.123Z,63.13
2023-02-16T08:34:34.934Z,42.50
2023-02-16T08:37:02.266Z,42.77
2023-02-16T08:39:32.130Z,47.03
2023-02-16T08:42:00.772Z,40.93
2023-02-16T08:44:29.617Z,45.77
2023-02-16T08:46:59.962Z,48.10
2023-02-16T08:49:27.636Z,51.17
2023-02-16T08:51:56.524Z,49.83
2023-02-16T08:54:27.445Z,57.97
2023-02-16T08:56:55.056Z,44.30
2023-02-16T08:59:23.800Z,55.43
2023-02-16T09:01:51.924Z,55.33
2023-02-16T09:04:20.169Z,44.33
2023-02-16T09:06:48.231Z,42.20
2023-02-16T09:09:16.044Z,50.20
2023-02-16T09:11:43.378Z,44.70
2023-02-16T09:14:10.714Z,47.83
2023-02-16T09:16:43.157Z,41.67
2023-02-16T09:19:11.652Z,46.30
2023-02-16T09:21:39.845Z,43.90
2023-02-16T09:24:07.574Z,46.20
2023-02-16T09:26:37.815Z,42.53
2023-02-16T09:29:06.319Z,39.20
2023-02-16T09:31:36.624Z,48.83
2023-02-16T09:34:07.351Z,43.37
2023-02-16T09:36:35.566Z,42.77
2023-02-16T09:39:02.883Z,49.00
2023-02-16T09:41:37.497Z,40.60
2023-02-16T09:44:17.441Z,41.43
2023-02-16T09:46:46.322Z,47.00
2023-02-16T09:49:23.794Z,41.10
2023-02-16T09:52:00.548Z,60.83
2023-02-16T09:54:39.096Z,45.10
2023-02-16T09:57:12.495Z,52.40
2023-02-16T09:59:48.666Z,46.77
2023-02-16T10:02:41.337Z,41.60
2023-02-16T10:05:23.771Z,38.97
2023-02-16T10:08:06.263Z,59.80
2023-02-16T10:10:44.594Z,46.93
2023-02-16T10:13:22.486Z,53.50
2023-02-16T10:15:53.941Z,43.73
2023-02-16T10:18:27.728Z,60.77
2023-02-16T10:20:59.381Z,48.90
2023-02-16T10:23:40.263Z,43.87
2023-02-16T10:26:18.414Z,47.13
2023-02-16T10:28:48.371Z,43.63
2023-02-16T10:31:23.963Z,58.53
2023-02-16T10:34:23.022Z,44.80
2023-02-16T10:37:18.784Z,39.40
2023-02-16T10:39:52.888Z,50.97
2023-02-16T10:42:27.596Z,36.90
2023-02-16T10:45:02.042Z,41.10
2023-02-16T10:47:35.075Z,36.87
2023-02-16T10:50:02.407Z,46.47
2023-02-16T10:52:36.871Z,40.87
2023-02-16T10:55:06.246Z,35.37
2023-02-16T10:57:33.843Z,31.67
2023-02-16T11:00:04.807Z,37.50
2023-02-16T11:02:38.389Z,35.70
2023-02-16T11:05:31.511Z,39.43
2023-02-16T11:08:01.232Z,31.10
2023-02-16T11:10:38.508Z,31.00
2023-02-16T11:13:07.816Z,37.73
2023-02-16T11:15:38.114Z,31.10
2023-02-16T11:18:08.692Z,35.23
2023-02-16T11:20:53.984Z,30.50
2023-02-16T11:23:24.545Z,30.60
2023-02-16T11:25:58.214Z,29.13
2023-02-16T11:28:32.654Z,30.13
2023-02-16T11:31:12.008Z,29.10
2023-02-16T11:33:41.044Z,33.90
2023-02-16T11:36:21.255Z,29.90
2023-02-16T11:38:58.264Z,29.50
2023-02-16T11:41:27.881Z,26.97
2023-02-16T11:43:56.204Z,25.63
2023-02-16T11:46:24.029Z,29.13
2023-02-16T11:48:51.732Z,30.20
2023-02-16T11:51:32.371Z,30.90
2023-02-16T11:54:03.138Z,34.90
2023-02-16T11:56:33.188Z,38.27
2023-02-16T11:59:07.496Z,28.93
2023-02-16T12:01:48.552Z,29.60
2023-02-16T12:04:28.389Z,30.50
2023-02-16T12:07:07.720Z,31.60
2023-02-16T12:09:45.529Z,33.33
2023-02-16T12:12:16.842Z,33.17
2023-02-16T12:14:56.340Z,25.80
2023-02-16T12:17:35.031Z,32.57
2023-02-16T12:20:16.514Z,29.63
2023-02-16T12:22:48.607Z,36.00
2023-02-16T12:25:29.245Z,33.13
2023-02-16T12:28:05.904Z,28.40
2023-02-16T12:30:45.394Z,37.87
2023-02-16T12:33:40.849Z,51.00
2023-02-16T12:36:41.277Z,38.90
2023-02-16T12:39:17.468Z,37.33
2023-02-16T12:41:58.505Z,34.63
2023-02-16T12:44:35.701Z,37.60
2023-02-16T12:47:07.505Z,29.57
2023-02-16T12:49:43.830Z,39.67
2023-02-16T12:52:21.617Z,32.43
2023-02-16T12:54:52.663Z,38.83
2023-02-16T12:57:24.280Z,33.23
2023-02-16T12:59:57.022Z,35.67
2023-02-16T13:02:28.721Z,30.07
2023-02-16T13:05:02.919Z,35.73
2023-02-16T13:07:35.274Z,32.10
2023-02-16T13:10:07.330Z,30.80
2023-02-16T13:12:40.042Z,33.80
2023-02-16T13:15:13.873Z,32.60
2023-02-16T13:17:46.095Z,30.23
2023-02-16T13:20:16.081Z,32.77
2023-02-16T13:23:04.281Z,35.10
2023-02-16T13:26:10.888Z,27.00
2023-02-16T13:28:53.067Z,30.00
2023-02-16T13:31:37.882Z,36.00
2023-02-16T13:34:42.425Z,32.47
2023-02-16T13:37:36.220Z,23.23
2023-02-16T13:40:47.235Z,31.63
2023-02-16T13:43:25.348Z,27.73
2023-02-16T13:45:53.882Z,32.10
2023-02-16T13:48:28.655Z,38.13
2023-02-16T13:50:58.937Z,31.70
2023-02-16T13:53:30.643Z,26.20
2023-02-16T13:56:21.976Z,28.80
2023-02-16T13:58:49.603Z,24.73
2023-02-16T14:01:38.604Z,25.07
2023-02-16T14:04:11.982Z,30.20
2023-02-16T14:06:42.008Z,32.17
2023-02-16T14:09:33.314Z,25.60
2023-02-16T14:12:15.559Z,27.10
2023-02-16T14:14:55.115Z,27.63
2023-02-16T14:17:27.122Z,28.20
2023-02-16T14:19:57.324Z,29.97
2023-02-16T14:22:41.223Z,26.40
2023-02-16T14:25:33.865Z,25.70
2023-02-16T14:28:03.007Z,25.00
2023-02-16T14:30:34.834Z,27.43
2023-02-16T14:33:16.028Z,25.90
2023-02-16T14:35:46.544Z,24.13
2023-02-16T14:38:21.792Z,24.70
2023-02-16T14:40:54.730Z,25.43
2023-02-16T14:43:31.080Z,29.70
2023-02-16T14:46:32.049Z,26.93
2023-02-16T14:49:27.889Z,30.60
2023-02-16T14:52:36.478Z,32.13
2023-02-16T14:55:29.181Z,28.63
2023-02-16T14:58:03.325Z,30.87
2023-02-16T15:00:39.852Z,33.23
2023-02-16T15:03:17.241Z,32.03
2023-02-16T15:05:52.144Z,26.63
2023-02-16T15:08:23.068Z,29.90
2023-02-16T15:10:53.512Z,31.57
2023-02-16T15:13:22.273Z,53.00
2023-02-16T15:15:52.635Z,28.83
2023-02-16T15:18:23.272Z,39.53
2023-02-16T15:20:53.611Z,25.77
2023-02-16T15:23:23.344Z,31.70
2023-02-16T15:25:57.929Z,29.37
2023-02-16T15:28:28.669Z,28.60
2023-02-16T15:30:58.394Z,25.07
2023-02-16T15:33:37.267Z,31.43
2023-02-16T15:36:08.209Z,32.23
2023-02-16T15:38:38.321Z,30.47
2023-02-16T15:41:08.230Z,28.07
2023-02-16T15:43:37.782Z,33.73
2023-02-16T15:46:08.310Z,31.67
2023-02-16T15:48:37.657Z,42.47
2023-02-16T15:51:14.200Z,52.70
2023-02-16T15:53:51.575Z,49.37
2023-02-16T15:56:33.703Z,51.47
2023-02-16T15:59:03.156Z,43.53
2023-02-16T16:01:33.046Z,37.57
2023-02-16T16:04:04.143Z,36.10
2023-02-16T16:06:39.885Z,39.27
2023-02-16T16:09:17.402Z,35.00
2023-02-16T16:11:44.921Z,32.67
2023-02-16T16:14:13.981Z,42.17
2023-02-16T16:16:42.593Z,42.50
2023-02-16T16:19:17.040Z,28.57
2023-02-16T16:21:51.211Z,32.80
2023-02-16T16:24:33.487Z,30.87
2023-02-16T16:27:03.704Z,35.80
2023-02-16T16:29:34.884Z,41.73
2023-02-16T16:32:03.344Z,43.97
2023-02-16T16:34:37.047Z,39.60
2023-02-16T16:37:06.948Z,48.73
2023-02-16T16:39:39.721Z,33.23
2023-02-16T16:42:18.136Z,29.23
2023-02-16T16:44:53.846Z,34.70
2023-02-16T16:47:28.413Z,33.30
2023-02-16T16:49:58.089Z,35.60
2023-02-16T16:52:47.481Z,32.13
2023-02-16T16:55:25.473Z,41.20
2023-02-16T16:57:54.698Z,28.57
2023-02-16T17:00:24.396Z,34.97
2023-02-16T17:02:52.238Z,29.73
2023-02-16T17:05:20.350Z,28.80
2023-02-16T17:07:49.413Z,26.57
2023-02-16T17:10:19.091Z,33.93
2023-02-16T17:12:50.922Z,27.67
2023-02-16T17:15:41.914Z,32.47
2023-02-16T17:18:13.960Z,40.53
2023-02-16T17:20:41.829Z,29.73
2023-02-16T17:23:11.534Z,44.13
2023-02-16T17:25:39.253Z,40.20
2023-02-16T17:28:07.430Z,35.77
2023-02-16T17:30:35.599Z,39.73
2023-02-16T17:33:03.905Z,40.13
2023-02-16T17:35:32.601Z,37.30
2023-02-16T17:38:05.956Z,41.23
2023-02-16T17:40:33.511Z,41.37
2023-02-16T17:43:01.089Z,40.37
2023-02-16T17:45:29.137Z,34.50
2023-02-16T17:47:56.611Z,38.40
2023-02-16T17:50:25.396Z,35.60
2023-02-16T17:52:56.408Z,35.30
2023-02-16T17:55:23.793Z,44.10
2023-02-16T17:57:51.147Z,36.43
2023-02-16T18:00:20.028Z,42.03
2023-02-16T18:02:48.218Z,33.90
2023-02-16T18:05:15.719Z,34.93
2023-02-16T18:07:43.037Z,35.43
2023-02-16T18:10:18.248Z,40.57
2023-02-16T18:12:45.711Z,52.77
2023-02-16T18:15:13.451Z,41.30
2023-02-16T18:17:40.728Z,35.53
2023-02-16T18:20:14.087Z,33.70
2023-02-16T18:22:41.581Z,37.20
2023-02-16T18:25:09.378Z,35.83
2023-02-16T18:27:36.704Z,29.60
2023-02-16T18:30:05.568Z,29.93
2023-02-16T18:32:32.945Z,27.17
2023-02-16T18:35:00.575Z,24.60
2023-02-16T18:37:28.826Z,30.10
2023-02-16T18:39:56.299Z,36.33
2023-02-16T18:42:23.732Z,39.13
2023-02-16T18:44:51.354Z,36.77
2023-02-16T18:47:18.744Z,35.97
2023-02-16T18:49:48.136Z,40.70
2023-02-16T18:52:17.152Z,39.10
2023-02-16T18:54:45.440Z,27.10
2023-02-16T18:57:12.964Z,31.73
2023-02-16T18:59:40.904Z,39.83
2023-02-16T19:02:11.152Z,34.60
2023-02-16T19:04:39.030Z,37.53
2023-02-16T19:07:07.138Z,26.40
2023-02-16T19:09:34.854Z,35.17
2023-02-16T19:12:03.318Z,32.50
2023-02-16T19:14:30.664Z,25.63
2023-02-16T19:16:58.209Z,28.13
2023-02-16T19:19:25.619Z,28.83
2023-02-16T19:21:53.225Z,29.10
2023-02-16T19:24:20.741Z,30.57
2023-02-16T19:26:48.253Z,31.40
2023-02-16T19:29:16.446Z,28.90
2023-02-16T19:31:44.051Z,36.17
2023-02-16T19:34:12.194Z,33.07
2023-02-16T19:36:39.757Z,27.57
2023-02-16T19:39:07.312Z,36.70
2023-02-16T19:41:37.547Z,28.37
2023-02-16T19:44:05.583Z,33.47
2023-02-16T19:46:34.702Z,25.90
2023-02-16T19:49:02.501Z,28.53
2023-02-16T19:51:32.447Z,31.53
2023-02-16T19:54:00.254Z,30.80
2023-02-16T19:56:28.073Z,31.57
2023-02-16T19:58:57.854Z,34.00
2023-02-16T20:01:27.149Z,32.57
2023-02-16T20:03:57.120Z,41.43
2023-02-16T20:06:27.160Z,36.83
2023-02-16T20:08:55.918Z,32.10
2023-02-16T20:11:25.435Z,33.43
2023-02-16T20:13:53.750Z,29.77
2023-02-16T20:16:22.287Z,35.30
2023-02-16T20:18:50.138Z,32.40
2023-02-16T20:21:20.819Z,30.07
2023-02-16T20:23:49.031Z,37.03
2023-02-16T20:26:18.439Z,29.40
2023-02-16T20:28:46.335Z,31.23
2023-02-16T20:31:15.437Z,36.47
2023-02-16T20:33:43.081Z,31.23
2023-02-16T20:36:11.172Z,32.57
2023-02-16T20:38:39.361Z,33.80
2023-02-16T20:41:07.149Z,34.70
2023-02-16T20:43:34.860Z,33.70
2023-02-16T20:46:03.505Z,28.83
2023-02-16T20:48:31.659Z,32.37
2023-02-16T20:51:01.861Z,31.73
2023-02-16T20:53:29.717Z,30.43
2023-02-16T20:56:02.438Z,28.60
2023-02-16T20:58:30.348Z,32.57
2023-02-16T21:00:57.809Z,27.63
2023-02-16T21:03:25.245Z,30.30
2023-02-16T21:05:52.529Z,29.77
2023-02-16T21:08:19.849Z,29.40
2023-02-16T21:10:47.112Z,30.60
2023-02-16T21:13:17.897Z,36.57
2023-02-16T21:15:45.192Z,34.90
2023-02-16T21:18:12.542Z,38.13
2023-02-16T21:20:40.137Z,30.97
2023-02-16T21:23:07.476Z,31.27
2023-02-16T21:25:35.372Z,47.83
2023-02-16T21:28:03.057Z,35.33
2023-02-16T21:30:31.224Z,30.67
2023-02-16T21:32:58.608Z,44.10
2023-02-16T21:35:26.222Z,33.30
2023-02-16T21:37:53.502Z,28.63
2023-02-16T21:40:38.936Z,33.17
2023-02-16T21:43:06.194Z,29.00
2023-02-16T21:45:34.156Z,35.03
2023-02-16T21:48:19.963Z,44.07
2023-02-16T21:50:47.243Z,38.07
2023-02-16T21:53:14.533Z,30.43
2023-02-16T21:55:59.932Z,34.07
2023-02-16T21:58:29.362Z,45.20
2023-02-16T22:00:57.326Z,41.70
2023-02-16T22:03:25.174Z,42.63
2023-02-16T22:05:52.520Z,47.03
2023-02-16T22:08:19.780Z,40.30
2023-02-16T22:10:47.105Z,29.33
2023-02-16T22:13:14.396Z,36.77
2023-02-16T22:15:41.684Z,28.90
2023-02-16T22:18:09.689Z,54.87
2023-02-16T22:20:36.970Z,29.23
2023-02-16T22:23:04.361Z,27.60
2023-02-16T22:25:31.700Z,23.73
2023-02-16T22:27:58.937Z,27.57
2023-02-16T22:30:26.266Z,28.00
2023-02-16T22:32:53.587Z,26.83
2023-02-16T22:35:21.572Z,23.77
2023-02-16T22:37:48.862Z,22.60
2023-02-16T22:40:16.646Z,25.67
2023-02-16T22:42:43.960Z,27.00
2023-02-16T22:45:11.508Z,23.93
2023-02-16T22:47:38.850Z,25.30
2023-02-16T22:50:07.311Z,27.43
2023-02-16T22:52:37.413Z,29.00
2023-02-16T22:55:05.128Z,27.00
2023-02-16T22:57:36.359Z,23.70
2023-02-16T23:00:05.329Z,28.03
2023-02-16T23:02:32.683Z,26.70
2023-02-16T23:04:59.957Z,25.53
2023-02-16T23:07:27.370Z,23.60
2023-02-16T23:09:55.427Z,27.73
2023-02-16T23:12:22.783Z,21.67
2023-02-16T23:14:50.369Z,22.93
2023-02-16T23:17:17.774Z,22.53
2023-02-16T23:19:45.145Z,20.53
2023-02-16T23:22:12.462Z,27.03
2023-02-16T23:24:40.986Z,26.10
2023-02-16T23:27:09.056Z,18.97
2023-02-16T23:29:36.334Z,21.87
2023-02-16T23:32:05.882Z,19.83
2023-02-16T23:34:33.174Z,21.50
2023-02-16T23:37:00.460Z,28.00
2023-02-16T23:39:27.729Z,24.40
2023-02-16T23:41:56.020Z,22.20
2023-02-16T23:44:24.003Z,21.53
2023-02-16T23:46:51.243Z,21.73
2023-02-16T23:49:18.565Z,21.00
2023-02-16T23:51:45.881Z,20.63
2023-02-16T23:54:13.168Z,23.80
2023-02-16T23:56:40.778Z,19.23
2023-02-16T23:59:08.099Z,23.67
